Terminal Aerodrome Forecast
Issued by NWS Twin Cities, MN

Home | Current Version | Previous Version | Text Only | Print | Product List | Glossary On
Versions: 1 2 3 4 5 6 7 8 9 10 11 12 13 14 15 16 17 18 19 20 21 22 23 24 25 26 27 28 29 30
000
FTUS43 KMPX 260520
TAFMSP
TAF
KMSP 260520Z 2606/2712 16007KT P6SM SCT250
     FM260730 16005KT 6SM -SHRA BR VCTS SCT020 BKN035CB
     FM261000 19004KT P6SM SCT020 BKN035
     FM261400 24008KT P6SM SCT250
     FM270300 23005KT P6SM BKN050 OVC200 PROB30 2703/2707 -TSRA
      BKN020CB=

USA.gov is the U.S. government's official web portal to all federal, state and local government web resources and services.